Time;durP1;ratioP1;P1;durP2;ratioP2;P2;SDS_P1;SDS_P2;PMS_P1;PMS_P2;Temp;Humidity;BMP_temperature;BMP_pressure;BME280_temperature;BME280_humidity;BME280_pressure;Samples;Min_cycle;Max_cycle;Signal;HPM_P1;HPM_P2
2020/12/07 00:01:45;;;;;;;7.20;6.50;;;4.00;95.90;;;;;;5054399;28;20213;-84
2020/12/07 00:04:11;;;;;;;6.77;6.07;;;4.10;95.20;;;;;;5054247;28;20205;-83
2020/12/07 00:06:39;;;;;;;7.27;6.57;;;4.00;94.90;;;;;;5057911;28;20225;-82
2020/12/07 00:09:05;;;;;;;7.80;7.00;;;3.80;94.80;;;;;;5057350;28;20715;-84
2020/12/07 00:11:32;;;;;;;8.90;8.00;;;3.60;95.10;;;;;;5052755;28;20284;-83
2020/12/07 00:13:58;;;;;;;6.83;6.13;;;3.70;96.70;;;;;;5066768;28;20207;-82
2020/12/07 00:16:25;;;;;;;8.20;7.20;;;3.70;95.90;;;;;;5055459;28;20229;-83
2020/12/07 00:18:51;;;;;;;7.97;6.30;;;3.70;96.10;;;;;;5055266;28;20205;-83
2020/12/07 00:21:17;;;;;;;7.03;6.37;;;3.80;96.50;;;;;;5053126;28;20234;-83
2020/12/07 00:23:45;;;;;;;6.97;6.27;;;3.90;96.00;;;;;;5054945;28;20201;-84
2020/12/07 00:26:11;;;;;;;6.97;6.33;;;3.90;95.60;;;;;;5055740;28;20233;-84
2020/12/07 00:28:38;;;;;;;6.63;5.93;;;4.00;95.30;;;;;;5051368;28;20213;-85
2020/12/07 00:31:05;;;;;;;6.60;6.00;;;4.10;95.70;;;;;;5053973;28;20232;-83
2020/12/07 00:33:31;;;;;;;7.17;6.47;;;4.10;94.90;;;;;;5061063;28;20205;-86
2020/12/07 00:35:58;;;;;;;6.33;5.73;;;3.90;94.70;;;;;;5056203;28;20221;-83
2020/12/07 00:38:24;;;;;;;8.63;5.90;;;3.90;94.90;;;;;;5058093;28;20201;-83
2020/12/07 00:40:51;;;;;;;6.63;6.03;;;3.90;94.90;;;;;;5059611;28;20236;-84
2020/12/07 00:43:18;;;;;;;6.27;5.67;;;4.00;95.10;;;;;;5056525;28;20209;-83
2020/12/07 00:45:44;;;;;;;7.03;6.33;;;4.00;94.90;;;;;;5055396;28;20674;-82
2020/12/07 00:48:11;;;;;;;6.50;5.90;;;3.90;94.80;;;;;;5054536;28;20213;-82
2020/12/07 00:50:37;;;;;;;5.63;5.13;;;3.80;94.80;;;;;;5068216;28;20233;-82
2020/12/07 00:53:05;;;;;;;5.53;5.00;;;3.90;95.50;;;;;;5069892;28;20690;-84
2020/12/07 00:55:32;;;;;;;5.93;5.37;;;4.00;95.30;;;;;;5070253;28;20251;-83
2020/12/07 00:57:59;;;;;;;6.60;6.00;;;4.20;95.60;;;;;;5055429;28;20696;-86
2020/12/07 01:00:26;;;;;;;5.87;5.30;;;4.20;94.90;;;;;;5059791;28;20221;-83
2020/12/07 01:02:52;;;;;;;6.13;5.57;;;4.20;94.90;;;;;;5055894;28;20206;-82
2020/12/07 01:05:18;;;;;;;6.00;5.40;;;4.00;94.90;;;;;;5071721;28;20229;-84
2020/12/07 01:07:45;;;;;;;5.50;5.00;;;4.10;95.20;;;;;;5065507;28;20208;-83
2020/12/07 01:10:11;;;;;;;5.53;5.03;;;4.10;94.90;;;;;;5066358;28;20228;-82
2020/12/07 01:12:38;;;;;;;5.50;5.00;;;4.10;94.90;;;;;;5065887;28;20221;-83
2020/12/07 01:15:05;;;;;;;5.50;5.00;;;4.30;95.20;;;;;;5073057;28;20224;-83
2020/12/07 01:17:31;;;;;;;5.23;4.77;;;4.30;94.90;;;;;;5074086;28;20207;-82
2020/12/07 01:19:58;;;;;;;5.70;5.20;;;4.30;94.50;;;;;;5073338;28;20238;-84
2020/12/07 01:22:24;;;;;;;5.97;5.40;;;4.40;94.50;;;;;;5069568;28;20211;-83
2020/12/07 01:24:50;;;;;;;5.70;5.20;;;4.30;95.00;;;;;;5067598;28;20231;-84
2020/12/07 01:27:17;;;;;;;6.07;5.47;;;4.20;94.60;;;;;;5062481;28;20209;-84
2020/12/07 01:29:43;;;;;;;6.37;5.77;;;4.20;94.70;;;;;;5063882;28;20603;-85
2020/12/07 01:32:10;;;;;;;6.40;5.80;;;4.20;94.90;;;;;;5067464;28;20221;-82
2020/12/07 01:34:37;;;;;;;6.03;5.53;;;4.00;94.90;;;;;;5058812;28;20282;-82
2020/12/07 01:37:03;;;;;;;6.13;5.53;;;3.80;94.80;;;;;;5069781;28;20216;-82
2020/12/07 01:39:30;;;;;;;6.43;5.83;;;3.80;95.10;;;;;;5060036;28;20292;-82
2020/12/07 01:41:56;;;;;;;5.77;5.27;;;3.80;95.50;;;;;;5061062;28;20298;-82
2020/12/07 01:44:22;;;;;;;5.83;5.33;;;3.90;95.00;;;;;;5069879;28;20201;-82
2020/12/07 01:46:49;;;;;;;5.57;5.03;;;4.10;95.30;;;;;;5072827;28;20204;-81
2020/12/07 01:49:17;;;;;;;5.47;4.97;;;4.20;94.90;;;;;;5073849;28;20205;-84
2020/12/07 01:51:43;;;;;;;5.40;4.90;;;4.10;94.90;;;;;;5069742;28;20218;-84
2020/12/07 01:54:10;;;;;;;5.40;4.90;;;4.00;94.40;;;;;;5076563;28;20528;-83
2020/12/07 01:56:38;;;;;;;6.00;5.50;;;3.90;94.60;;;;;;5065735;28;20227;-83
2020/12/07 01:59:04;;;;;;;4.80;4.40;;;4.00;95.10;;;;;;5067457;28;20587;-83
2020/12/07 02:01:31;;;;;;;6.30;4.90;;;4.10;94.90;;;;;;5070846;28;20225;-83
2020/12/07 02:03:57;;;;;;;5.40;4.90;;;4.00;94.50;;;;;;5075918;28;20219;-81
2020/12/07 02:06:25;;;;;;;4.50;4.10;;;3.90;94.80;;;;;;5070506;28;20228;-83
2020/12/07 02:08:51;;;;;;;4.70;4.30;;;3.90;95.50;;;;;;5075542;28;20220;-82
2020/12/07 02:11:18;;;;;;;4.57;4.17;;;4.00;94.90;;;;;;5076921;28;20240;-82
2020/12/07 02:13:45;;;;;;;4.37;4.00;;;3.90;94.30;;;;;;5065845;28;20294;-82
2020/12/07 02:16:12;;;;;;;4.67;4.27;;;3.90;94.80;;;;;;5073392;28;20236;-83
2020/12/07 02:18:38;;;;;;;4.10;3.80;;;4.00;95.00;;;;;;5070609;28;20193;-83
2020/12/07 02:21:05;;;;;;;4.03;3.73;;;4.00;94.90;;;;;;5074743;28;20235;-82
2020/12/07 02:23:32;;;;;;;4.23;3.83;;;4.00;94.90;;;;;;5073157;28;20231;-84
2020/12/07 02:25:58;;;;;;;3.83;3.53;;;4.10;94.90;;;;;;5077972;28;20224;-81
2020/12/07 02:28:25;;;;;;;4.23;3.83;;;4.10;94.90;;;;;;5078306;28;20197;-84
2020/12/07 02:30:51;;;;;;;4.07;3.77;;;4.10;94.90;;;;;;5074040;28;20546;-83
2020/12/07 02:33:17;;;;;;;4.07;3.77;;;4.10;94.80;;;;;;5070049;28;20197;-84
2020/12/07 02:35:44;;;;;;;4.00;3.70;;;4.10;94.20;;;;;;5070108;28;20240;-83
2020/12/07 02:38:11;;;;;;;4.40;4.00;;;4.00;94.60;;;;;;5071700;28;20211;-82
2020/12/07 02:40:39;;;;;;;4.33;3.93;;;4.00;94.50;;;;;;5068002;28;20224;-81
2020/12/07 02:43:06;;;;;;;4.17;3.87;;;3.80;94.10;;;;;;5071260;28;20293;-81
2020/12/07 02:45:32;;;;;;;4.47;4.17;;;3.70;94.80;;;;;;5068205;28;20406;-85
2020/12/07 02:47:58;;;;;;;4.00;3.70;;;3.60;94.80;;;;;;5073146;28;20212;-83
2020/12/07 02:50:25;;;;;;;4.17;3.87;;;3.50;95.10;;;;;;5073968;28;20722;-83
2020/12/07 02:52:51;;;;;;;3.57;3.27;;;3.60;96.20;;;;;;5068464;28;20225;-85
2020/12/07 02:55:18;;;;;;;3.80;3.50;;;3.80;95.30;;;;;;5062807;28;20249;-82
2020/12/07 02:57:45;;;;;;;4.20;3.90;;;3.80;94.80;;;;;;5057544;28;20213;-83
2020/12/07 03:00:11;;;;;;;4.03;3.73;;;3.70;94.80;;;;;;5068004;28;20236;-82
2020/12/07 03:02:38;;;;;;;3.60;3.30;;;3.50;94.80;;;;;;5068625;28;20563;-83
2020/12/07 03:05:05;;;;;;;4.47;4.07;;;3.40;95.60;;;;;;5065772;28;20577;-84
2020/12/07 03:07:31;;;;;;;4.43;4.03;;;3.40;95.70;;;;;;5065581;28;20215;-83
2020/12/07 03:09:57;;;;;;;4.20;3.90;;;3.30;95.70;;;;;;5062351;28;20227;-84
2020/12/07 03:12:25;;;;;;;4.60;4.27;;;3.30;97.00;;;;;;5065426;28;20221;-82
2020/12/07 03:14:51;;;;;;;3.63;3.33;;;3.40;95.40;;;;;;5063984;28;20540;-83
2020/12/07 03:17:17;;;;;;;3.70;3.40;;;3.40;94.80;;;;;;5069083;28;20216;-83
2020/12/07 03:19:44;;;;;;;4.23;3.70;;;3.40;95.20;;;;;;5063311;28;20584;-83
2020/12/07 03:22:10;;;;;;;4.00;3.70;;;3.40;95.10;;;;;;5065351;28;20588;-83
2020/12/07 03:24:37;;;;;;;3.97;3.67;;;3.30;94.70;;;;;;5064074;28;20225;-83
2020/12/07 03:27:03;;;;;;;4.00;3.70;;;3.20;95.10;;;;;;5067949;28;20250;-84
2020/12/07 03:29:30;;;;;;;4.13;3.83;;;3.20;96.30;;;;;;5064533;28;20207;-84
2020/12/07 03:31:57;;;;;;;3.63;3.33;;;3.30;96.20;;;;;;5068801;28;20683;-83
2020/12/07 03:34:23;;;;;;;3.87;3.57;;;3.40;96.10;;;;;;5065409;28;20193;-83
2020/12/07 03:36:50;;;;;;;4.57;3.93;;;3.50;95.50;;;;;;5065032;28;20619;-84
2020/12/07 03:39:16;;;;;;;4.03;3.73;;;3.50;95.60;;;;;;5063181;28;20548;-83
2020/12/07 03:41:43;;;;;;;4.10;3.80;;;3.60;95.80;;;;;;5064746;28;20211;-83
2020/12/07 03:44:09;;;;;;;4.10;3.80;;;3.60;94.90;;;;;;5068876;28;20202;-83
2020/12/07 03:46:36;;;;;;;4.43;3.77;;;3.60;95.20;;;;;;5065674;28;20229;-82
2020/12/07 03:49:03;;;;;;;3.67;3.37;;;3.40;94.70;;;;;;5068330;28;20197;-83
2020/12/07 03:51:29;;;;;;;4.00;3.70;;;3.30;95.20;;;;;;5066917;28;20243;-86
2020/12/07 03:53:56;;;;;;;4.40;4.10;;;3.20;95.60;;;;;;5068488;28;20668;-83
2020/12/07 03:56:23;;;;;;;4.50;4.10;;;3.10;96.20;;;;;;5065187;28;20227;-83
2020/12/07 03:58:50;;;;;;;4.43;4.13;;;3.10;96.60;;;;;;5067603;28;20213;-84
2020/12/07 04:01:16;;;;;;;4.43;4.13;;;3.00;96.10;;;;;;5069155;28;20225;-83
2020/12/07 04:03:49;;;;;;;3.90;3.60;;;3.00;96.60;;;;;;5068574;28;20194;-84
2020/12/07 04:06:19;;;;;;;3.80;3.50;;;3.20;97.10;;;;;;5068427;28;20585;-82
2020/12/07 04:08:46;;;;;;;3.80;3.50;;;3.30;96.80;;;;;;5061890;28;20201;-82
2020/12/07 04:11:12;;;;;;;4.17;3.87;;;3.30;96.00;;;;;;5062962;28;20228;-83
2020/12/07 04:13:38;;;;;;;4.00;3.70;;;3.30;96.30;;;;;;5067809;28;20205;-82
2020/12/07 04:16:05;;;;;;;3.30;3.10;;;3.30;96.10;;;;;;5066527;28;20259;-83
2020/12/07 04:18:31;;;;;;;3.60;3.30;;;3.30;95.20;;;;;;5067572;28;20205;-83
2020/12/07 04:21:00;;;;;;;3.23;2.93;;;3.20;95.20;;;;;;5065146;28;20226;-83
2020/12/07 04:23:27;;;;;;;3.47;3.17;;;3.20;95.10;;;;;;5060644;28;20205;-84
2020/12/07 04:25:54;;;;;;;2.87;2.67;;;3.00;95.30;;;;;;5063790;28;20241;-83
2020/12/07 04:28:21;;;;;;;2.80;2.60;;;3.00;96.20;;;;;;5063340;28;20209;-82
2020/12/07 04:30:47;;;;;;;2.97;2.77;;;3.00;96.00;;;;;;5069061;28;20225;-82
2020/12/07 04:33:14;;;;;;;4.27;2.97;;;2.90;95.60;;;;;;5068678;28;20225;-82
2020/12/07 04:35:40;;;;;;;3.27;3.07;;;2.90;96.20;;;;;;5064479;28;20229;-82
2020/12/07 04:38:08;;;;;;;3.00;2.80;;;2.70;96.00;;;;;;5064656;28;20755;-83
2020/12/07 04:40:34;;;;;;;3.20;3.00;;;2.80;97.10;;;;;;5067265;28;20290;-84
2020/12/07 04:43:02;;;;;;;2.83;2.63;;;2.80;96.90;;;;;;5067361;28;20709;-82
2020/12/07 04:45:28;;;;;;;3.60;3.30;;;2.80;96.60;;;;;;5064112;28;20230;-82
2020/12/07 04:47:56;;;;;;;3.20;3.00;;;3.10;97.10;;;;;;5066596;28;20250;-84
2020/12/07 04:50:24;;;;;;;3.77;3.47;;;3.10;96.00;;;;;;5065938;28;20239;-83
2020/12/07 04:52:50;;;;;;;2.97;2.73;;;3.00;95.60;;;;;;5065216;28;20699;-82
2020/12/07 04:55:18;;;;;;;3.20;3.00;;;2.90;95.80;;;;;;5067378;28;20235;-85
2020/12/07 04:57:45;;;;;;;3.03;2.73;;;2.90;96.30;;;;;;5062623;28;20202;-82
2020/12/07 05:00:12;;;;;;;2.70;2.50;;;2.80;96.00;;;;;;5064986;28;20243;-82
2020/12/07 05:02:38;;;;;;;2.90;2.70;;;2.80;96.20;;;;;;5073300;28;20280;-81
2020/12/07 05:05:05;;;;;;;2.80;2.60;;;2.70;96.60;;;;;;5070341;28;20550;-82
2020/12/07 05:07:33;;;;;;;2.90;2.70;;;2.80;97.30;;;;;;5074721;28;20573;-82
2020/12/07 05:10:01;;;;;;;2.93;2.73;;;3.10;97.20;;;;;;5070954;28;20222;-84
2020/12/07 05:12:36;;;;;;;2.70;2.50;;;3.30;96.50;;;;;;5072370;28;20300;-82
2020/12/07 05:15:06;;;;;;;2.83;2.63;;;3.50;95.40;;;;;;5076231;28;20232;-81
2020/12/07 05:17:32;;;;;;;2.67;2.40;;;3.50;94.80;;;;;;5075012;28;20259;-83
2020/12/07 05:19:59;;;;;;;2.53;2.33;;;3.60;95.10;;;;;;5079316;28;20235;-82
2020/12/07 05:22:29;;;;;;;2.40;2.30;;;3.50;95.00;;;;;;5075556;28;20198;-82
2020/12/07 05:24:55;;;;;;;2.67;2.47;;;3.60;94.80;;;;;;5068018;28;20231;-81
2020/12/07 05:27:27;;;;;;;2.60;2.40;;;3.60;94.80;;;;;;5068338;28;20211;-82
2020/12/07 05:30:04;;;;;;;3.40;2.57;;;3.60;94.80;;;;;;5064649;28;20220;-82
2020/12/07 05:32:34;;;;;;;2.70;2.50;;;3.50;94.70;;;;;;5064593;28;20227;-82
2020/12/07 05:35:01;;;;;;;3.10;2.80;;;3.70;95.40;;;;;;5064361;28;20231;-82
2020/12/07 05:37:30;;;;;;;3.10;2.90;;;3.70;95.10;;;;;;5064959;28;20551;-82
2020/12/07 05:39:57;;;;;;;2.80;2.60;;;3.80;94.30;;;;;;5062300;28;20320;-83
2020/12/07 05:42:25;;;;;;;2.93;2.73;;;3.70;94.20;;;;;;5067837;28;20201;-84
2020/12/07 05:44:56;;;;;;;2.80;2.60;;;3.50;94.30;;;;;;5063429;28;20559;-83
2020/12/07 05:47:24;;;;;;;2.97;2.47;;;3.50;94.80;;;;;;5065690;28;20205;-84
2020/12/07 05:49:54;;;;;;;2.97;2.43;;;3.40;94.50;;;;;;5065632;28;20837;-86
2020/12/07 05:52:29;;;;;;;2.63;2.43;;;3.40;95.40;;;;;;5066960;28;20217;-84
2020/12/07 05:54:56;;;;;;;4.80;2.30;;;3.10;94.70;;;;;;5065565;28;20232;-84
2020/12/07 05:57:28;;;;;;;2.53;2.33;;;3.10;95.50;;;;;;5061131;28;20211;-81
2020/12/07 05:59:57;;;;;;;2.70;2.50;;;2.90;95.30;;;;;;5064041;28;20288;-82
2020/12/07 06:02:24;;;;;;;3.00;2.70;;;2.70;95.70;;;;;;5057822;28;20205;-83
2020/12/07 06:04:55;;;;;;;2.50;2.30;;;2.70;96.60;;;;;;5067867;28;20221;-82
2020/12/07 06:07:29;;;;;;;2.90;2.70;;;2.80;97.70;;;;;;5066899;28;20212;-83
2020/12/07 06:09:57;;;;;;;2.43;2.23;;;2.70;97.10;;;;;;5062283;28;20607;-83
2020/12/07 06:12:28;;;;;;;2.53;2.33;;;2.60;96.90;;;;;;5064673;28;20232;-84
2020/12/07 06:14:56;;;;;;;2.50;2.30;;;2.60;96.80;;;;;;5063026;28;20361;-84
2020/12/07 06:17:30;;;;;;;3.23;2.60;;;2.50;96.80;;;;;;5067203;28;20193;-86
2020/12/07 06:19:56;;;;;;;4.30;2.40;;;2.70;97.70;;;;;;5067458;28;20221;-87
2020/12/07 06:22:23;;;;;;;2.67;2.47;;;3.00;97.80;;;;;;5069005;28;20209;-84
2020/12/07 06:24:51;;;;;;;2.80;2.60;;;3.10;96.40;;;;;;5064329;28;20224;-83
2020/12/07 06:27:18;;;;;;;3.47;2.57;;;3.10;96.30;;;;;;5064716;28;20296;-81
2020/12/07 06:30:00;;;;;;;2.67;2.47;;;3.10;97.00;;;;;;5067711;28;20221;-82
2020/12/07 06:32:44;;;;;;;2.80;2.60;;;3.00;95.80;;;;;;5067497;28;20223;-82
2020/12/07 06:35:11;;;;;;;2.60;2.40;;;2.90;95.70;;;;;;5062826;28;20234;-83
2020/12/07 06:37:43;;;;;;;3.17;2.87;;;2.60;95.50;;;;;;5068920;28;20802;-82
2020/12/07 06:40:10;;;;;;;2.90;2.70;;;2.70;96.70;;;;;;5058928;28;20695;-88
2020/12/07 06:42:43;;;;;;;3.40;3.07;;;2.70;97.10;;;;;;5065872;28;20821;-84
2020/12/07 06:45:24;;;;;;;4.83;2.90;;;2.90;97.40;;;;;;5067242;28;20774;-83
2020/12/07 06:47:51;;;;;;;4.13;2.57;;;3.20;96.80;;;;;;5075722;28;20201;-83
2020/12/07 06:50:21;;;;;;;3.07;2.77;;;3.20;95.30;;;;;;5073362;28;20252;-87
2020/12/07 06:52:48;;;;;;;3.50;3.20;;;3.20;95.00;;;;;;5068768;28;20255;-84
2020/12/07 06:55:16;;;;;;;3.57;3.27;;;3.10;94.70;;;;;;5069768;28;20261;-85
2020/12/07 06:57:44;;;;;;;5.13;3.67;;;2.90;94.80;;;;;;5072367;28;20215;-84
2020/12/07 07:00:14;;;;;;;5.40;4.77;;;2.80;95.20;;;;;;5059262;28;20233;-81
2020/12/07 07:02:43;;;;;;;5.43;3.93;;;2.70;95.10;;;;;;5056261;28;20337;-82
2020/12/07 07:05:12;;;;;;;4.57;3.53;;;2.50;95.90;;;;;;5066908;28;20217;-81
2020/12/07 07:07:39;;;;;;;6.07;4.90;;;2.60;96.70;;;;;;5058339;28;20225;-83
2020/12/07 07:10:07;;;;;;;6.60;4.50;;;2.70;97.10;;;;;;5057390;28;20228;-82
2020/12/07 07:12:34;;;;;;;4.70;4.10;;;2.70;96.40;;;;;;5060712;28;20590;-82
2020/12/07 07:15:01;;;;;;;4.37;3.97;;;2.70;95.90;;;;;;5066867;28;20227;-85
2020/12/07 07:17:30;;;;;;;4.43;3.83;;;2.60;96.10;;;;;;5068354;28;20651;-82
2020/12/07 07:19:57;;;;;;;5.20;3.83;;;2.60;96.70;;;;;;5067934;28;20228;-84
2020/12/07 07:22:25;;;;;;;5.07;3.70;;;2.60;96.50;;;;;;5067004;28;20209;-81
2020/12/07 07:24:58;;;;;;;5.37;3.60;;;2.50;96.50;;;;;;5067344;28;20305;-81
2020/12/07 07:30:13;;;;;;;8.90;4.27;;;2.30;96.80;;;;;;5065163;28;20228;-83
2020/12/07 07:32:41;;;;;;;5.93;4.23;;;2.20;97.10;;;;;;5056391;28;20222;-82
2020/12/07 07:35:08;;;;;;;7.67;4.63;;;2.20;97.40;;;;;;5062812;28;20687;-80
2020/12/07 07:37:35;;;;;;;6.17;4.60;;;2.40;98.10;;;;;;5062468;28;20205;-80
2020/12/07 07:40:04;;;;;;;13.03;5.47;;;2.50;97.80;;;;;;5051854;28;20555;-81
2020/12/07 07:42:32;;;;;;;11.13;5.63;;;2.70;98.40;;;;;;5059811;28;20208;-79
2020/12/07 07:44:58;;;;;;;7.63;4.53;;;3.00;98.20;;;;;;5061221;28;20225;-79
2020/12/07 07:47:30;;;;;;;9.63;5.10;;;3.10;96.30;;;;;;5055439;28;20297;-81
2020/12/07 07:50:15;;;;;;;6.93;5.07;;;3.20;96.70;;;;;;5054492;28;20229;-79
2020/12/07 08:15:30;;;;;;;5.37;4.23;;;3.60;94.80;;;;;;5027074;28;20634;-80
2020/12/07 08:17:59;;;;;;;5.30;4.03;;;3.70;94.80;;;;;;5061902;28;20282;-80
2020/12/07 08:20:27;;;;;;;5.33;4.70;;;3.70;94.80;;;;;;5059654;28;20231;-80
2020/12/07 08:22:59;;;;;;;4.70;4.00;;;3.80;94.70;;;;;;5060569;28;20215;-79
2020/12/07 08:25:46;;;;;;;6.70;4.40;;;3.60;94.00;;;;;;5062825;28;20225;-82
2020/12/07 08:28:21;;;;;;;4.20;3.80;;;3.70;94.70;;;;;;5057928;28;20205;-79
2020/12/07 08:31:05;;;;;;;6.77;3.60;;;3.80;94.60;;;;;;5064686;28;20569;-79
2020/12/07 08:33:33;;;;;;;4.17;3.60;;;4.00;94.90;;;;;;5063582;28;20595;-83
2020/12/07 08:36:01;;;;;;;4.40;3.50;;;4.20;94.40;;;;;;5066941;28;20217;-79
2020/12/07 08:38:30;;;;;;;3.90;3.47;;;4.20;93.60;;;;;;5067383;28;20744;-79
2020/12/07 08:41:11;;;;;;;3.87;3.07;;;4.80;93.30;;;;;;5060973;28;20233;-79
2020/12/07 08:43:42;;;;;;;4.73;3.20;;;5.40;91.00;;;;;;5072804;28;20211;-82
2020/12/07 08:46:10;;;;;;;3.90;2.70;;;6.10;89.70;;;;;;5074902;28;20742;-82
2020/12/07 08:48:37;;;;;;;4.93;2.77;;;7.10;87.20;;;;;;5076133;28;20204;-84
2020/12/07 08:51:04;;;;;;;3.80;2.80;;;8.10;78.90;;;;;;5076460;28;20226;-82
2020/12/07 08:53:31;;;;;;;2.95;2.60;;;8.80;73.70;;;;;;5071326;28;20309;-85
2020/12/07 08:55:58;;;;;;;4.55;2.20;;;9.20;74.10;;;;;;5075798;28;20221;-83
2020/12/07 08:58:24;;;;;;;4.18;2.40;;;9.60;67.80;;;;;;5074461;28;20325;-83
2020/12/07 09:00:50;;;;;;;2.25;2.05;;;9.70;65.60;;;;;;5076689;28;20293;-83
2020/12/07 09:03:17;;;;;;;2.10;1.90;;;9.70;64.70;;;;;;5079864;28;20647;-84
2020/12/07 09:05:43;;;;;;;2.22;2.03;;;9.70;64.40;;;;;;5079267;28;20245;-82
2020/12/07 09:08:11;;;;;;;3.05;2.42;;;10.10;60.00;;;;;;5076336;28;20292;-84
2020/12/07 09:10:38;;;;;;;2.88;2.20;;;11.20;57.60;;;;;;5074394;28;20783;-85
2020/12/07 09:13:04;;;;;;;2.33;2.13;;;12.20;52.60;;;;;;5067507;28;20258;-85
2020/12/07 09:15:31;;;;;;;1.80;1.70;;;13.40;49.90;;;;;;5072550;28;20253;-84
2020/12/07 09:17:58;;;;;;;2.10;1.90;;;13.70;46.10;;;;;;5074253;28;20207;-83
2020/12/07 09:20:24;;;;;;;1.75;1.65;;;13.70;44.00;;;;;;5069417;28;20221;-85
2020/12/07 09:22:50;;;;;;;2.53;2.33;;;14.00;43.20;;;;;;5066791;28;20193;-83
2020/12/07 09:25:17;;;;;;;2.05;1.95;;;14.70;41.80;;;;;;5071241;28;20233;-86
2020/12/07 09:27:44;;;;;;;1.50;1.40;;;14.20;40.50;;;;;;5075436;28;20200;-85
2020/12/07 09:30:10;;;;;;;1.50;1.40;;;14.80;40.60;;;;;;5066933;28;20240;-81
2020/12/07 09:32:37;;;;;;;1.88;1.70;;;15.00;40.00;;;;;;5074553;28;20225;-80
2020/12/07 09:35:06;;;;;;;1.90;1.38;;;15.20;39.40;;;;;;5079945;28;20598;-82
2020/12/07 09:37:32;;;;;;;1.63;1.52;;;15.10;37.70;;;;;;5078045;28;20612;-81
2020/12/07 09:40:00;;;;;;;1.50;1.40;;;15.10;38.50;;;;;;5073499;28;20627;-82
2020/12/07 09:42:26;;;;;;;1.20;1.20;;;14.50;40.00;;;;;;5072918;28;20202;-86
2020/12/07 09:44:53;;;;;;;1.17;1.17;;;14.40;39.80;;;;;;5077681;28;20939;-80
2020/12/07 09:47:19;;;;;;;1.60;1.50;;;13.80;41.40;;;;;;5072885;28;20201;-82
2020/12/07 09:49:46;;;;;;;1.52;1.33;;;13.10;40.90;;;;;;5079701;28;20232;-84
2020/12/07 09:52:12;;;;;;;1.40;1.30;;;12.00;45.00;;;;;;5080783;28;20888;-82
2020/12/07 09:54:39;;;;;;;1.75;1.50;;;11.80;47.50;;;;;;5074004;28;20229;-85
2020/12/07 09:57:05;;;;;;;2.10;2.00;;;11.10;47.70;;;;;;5062405;28;20196;-84
2020/12/07 09:59:33;;;;;;;2.63;2.08;;;10.50;49.80;;;;;;5061383;28;20219;-88
2020/12/07 10:02:01;;;;;;;2.42;2.22;;;10.20;52.80;;;;;;5065389;28;20213;-84
2020/12/07 10:04:27;;;;;;;1.67;1.58;;;9.70;54.70;;;;;;5070513;28;20201;-84
2020/12/07 10:06:54;;;;;;;1.40;1.30;;;9.30;56.10;;;;;;5070755;28;20193;-84
2020/12/07 10:09:20;;;;;;;1.40;1.30;;;8.50;57.50;;;;;;5067169;28;20197;-86
2020/12/07 10:11:47;;;;;;;1.88;1.77;;;8.20;60.10;;;;;;5063943;28;20201;-87
2020/12/07 10:14:13;;;;;;;1.40;1.30;;;8.30;62.10;;;;;;5072623;28;20198;-85
2020/12/07 10:16:41;;;;;;;2.97;1.42;;;8.40;62.30;;;;;;5065815;28;20313;-85
2020/12/07 10:19:09;;;;;;;1.30;1.20;;;8.20;60.30;;;;;;5071704;28;20668;-86
2020/12/07 10:21:35;;;;;;;1.67;1.58;;;7.80;63.60;;;;;;5066134;28;20260;-85
2020/12/07 10:24:04;;;;;;;1.45;1.35;;;7.50;66.90;;;;;;5071745;28;20205;-84
2020/12/07 10:26:30;;;;;;;2.35;1.48;;;7.70;64.20;;;;;;5069377;28;20224;-85
2020/12/07 10:28:57;;;;;;;1.75;1.65;;;8.00;66.60;;;;;;5060280;28;20585;-85
2020/12/07 10:31:24;;;;;;;1.63;1.42;;;8.50;65.50;;;;;;5070516;28;20228;-86
2020/12/07 10:33:51;;;;;;;1.30;1.20;;;8.40;61.50;;;;;;5073019;28;20683;-86
2020/12/07 10:36:19;;;;;;;1.10;1.10;;;8.10;62.40;;;;;;5075722;28;20729;-86
2020/12/07 10:38:46;;;;;;;1.33;1.23;;;8.40;65.50;;;;;;5072889;28;20292;-84
2020/12/07 10:41:13;;;;;;;2.22;1.15;;;9.30;61.20;;;;;;5077512;28;20300;-85
2020/12/07 10:46:29;;;;;;;1.52;1.42;;;11.30;48.50;;;;;;5068742;28;20695;-85
2020/12/07 10:48:55;;;;;;;1.15;1.05;;;12.40;47.10;;;;;;5072999;28;20475;-84
2020/12/07 10:51:22;;;;;;;1.15;1.15;;;12.40;46.20;;;;;;5061471;28;20305;-85
2020/12/07 10:53:49;;;;;;;1.40;1.30;;;12.00;47.00;;;;;;5071938;28;20485;-84
2020/12/07 10:56:15;;;;;;;1.40;1.30;;;11.80;46.30;;;;;;5066785;28;20221;-84
2020/12/07 10:58:42;;;;;;;1.65;1.55;;;11.30;48.00;;;;;;5071560;28;20231;-84
2020/12/07 11:01:09;;;;;;;1.60;1.50;;;10.80;47.60;;;;;;5075072;28;20225;-83
2020/12/07 11:03:36;;;;;;;1.40;1.30;;;10.10;48.70;;;;;;5078640;28;20304;-83
2020/12/07 11:06:12;;;;;;;1.52;1.42;;;9.50;53.10;;;;;;5072751;28;20260;-82
2020/12/07 11:08:48;;;;;;;2.78;1.58;;;8.90;55.00;;;;;;5078936;28;20223;-83
2020/12/07 11:11:16;;;;;;;1.80;1.70;;;8.30;57.70;;;;;;5072182;28;20228;-82
2020/12/07 11:13:42;;;;;;;2.38;2.17;;;7.90;61.40;;;;;;5070202;28;20221;-84
2020/12/07 11:16:11;;;;;;;1.60;1.50;;;7.80;62.70;;;;;;5075807;28;20613;-83
2020/12/07 11:18:38;;;;;;;2.97;1.60;;;7.80;64.60;;;;;;5071921;28;20730;-84
2020/12/07 11:21:08;;;;;;;4.00;1.63;;;7.50;64.70;;;;;;5078901;28;20377;-84
2020/12/07 11:23:34;;;;;;;1.75;1.60;;;7.20;65.60;;;;;;5079106;28;20202;-84
2020/12/07 11:26:02;;;;;;;2.28;1.70;;;6.80;68.00;;;;;;5072843;28;20694;-83
2020/12/07 11:28:29;;;;;;;1.90;1.70;;;6.70;71.50;;;;;;5073319;28;20541;-84
2020/12/07 11:30:55;;;;;;;3.27;1.80;;;6.60;71.40;;;;;;5077418;28;20235;-84
2020/12/07 11:33:21;;;;;;;2.17;1.97;;;6.50;71.30;;;;;;5070474;28;20671;-83
2020/12/07 11:35:48;;;;;;;2.27;2.07;;;6.50;71.30;;;;;;5068984;28;20229;-84
2020/12/07 11:38:17;;;;;;;1.70;1.60;;;6.70;71.50;;;;;;5065971;28;20207;-84
2020/12/07 11:41:14;;;;;;;1.73;1.53;;;6.70;71.50;;;;;;5067316;28;20786;-84
2020/12/07 11:43:48;;;;;;;2.23;1.60;;;6.60;71.40;;;;;;5077367;28;20611;-84
2020/12/07 11:46:20;;;;;;;2.47;1.37;;;6.50;71.00;;;;;;5073700;28;20345;-84
2020/12/07 11:48:46;;;;;;;2.23;1.90;;;6.40;71.20;;;;;;5069922;28;20267;-85
2020/12/07 11:51:12;;;;;;;1.73;1.63;;;6.70;73.50;;;;;;5077050;28;20703;-85
2020/12/07 11:53:39;;;;;;;2.00;1.80;;;6.90;71.70;;;;;;5077949;28;20825;-84
2020/12/07 11:56:05;;;;;;;1.80;1.70;;;7.10;71.90;;;;;;5079055;28;20300;-87
2020/12/07 11:58:32;;;;;;;2.20;2.00;;;7.20;70.10;;;;;;5065221;28;20269;-87
2020/12/07 12:00:59;;;;;;;2.33;2.13;;;7.10;71.90;;;;;;5063848;28;20239;-87
2020/12/07 12:03:25;;;;;;;2.07;1.70;;;7.10;71.90;;;;;;5072843;28;20209;-85
2020/12/07 12:05:52;;;;;;;1.70;1.60;;;7.30;72.10;;;;;;5067781;28;20229;-85
2020/12/07 12:08:19;;;;;;;2.33;2.13;;;7.40;72.30;;;;;;5077899;28;20338;-85
2020/12/07 12:10:48;;;;;;;2.03;1.60;;;7.40;68.10;;;;;;5071272;28;20527;-86
2020/12/07 12:13:14;;;;;;;2.43;1.60;;;7.40;72.30;;;;;;5070066;28;20220;-85
2020/12/07 12:15:41;;;;;;;2.63;2.00;;;7.20;69.70;;;;;;5071186;28;20221;-86
2020/12/07 12:18:08;;;;;;;1.90;1.70;;;7.30;70.10;;;;;;5074220;28;20272;-86
2020/12/07 12:20:34;;;;;;;2.13;1.50;;;7.30;70.40;;;;;;5071174;28;20235;-84
2020/12/07 12:23:03;;;;;;;1.87;1.50;;;7.30;67.60;;;;;;5067946;28;20264;-85
2020/12/07 12:25:29;;;;;;;1.53;1.43;;;7.20;68.80;;;;;;5073317;28;20225;-87
2020/12/07 12:27:56;;;;;;;1.53;1.43;;;7.00;67.80;;;;;;5071285;28;20213;-85
2020/12/07 12:30:22;;;;;;;2.27;2.07;;;6.80;68.60;;;;;;5066092;28;20233;-89
2020/12/07 12:32:49;;;;;;;3.40;1.70;;;6.50;70.30;;;;;;5058340;28;20214;-84
2020/12/07 12:35:19;;;;;;;3.87;1.90;;;6.30;71.20;;;;;;5067625;28;20235;-86
2020/12/07 12:37:45;;;;;;;1.83;1.70;;;6.30;72.30;;;;;;5071272;28;20421;-86
2020/12/07 12:40:11;;;;;;;3.23;1.70;;;6.30;71.10;;;;;;5070353;28;20374;-86
2020/12/07 12:42:38;;;;;;;1.90;1.70;;;6.30;71.20;;;;;;5071567;28;20201;-85
2020/12/07 12:45:04;;;;;;;1.50;1.40;;;6.30;71.20;;;;;;5075284;28;20213;-86
2020/12/07 12:47:31;;;;;;;1.77;1.67;;;6.50;71.30;;;;;;5074080;28;20213;-85
2020/12/07 12:49:57;;;;;;;3.03;1.63;;;6.80;68.10;;;;;;5070272;28;20653;-86
2020/12/07 12:52:26;;;;;;;3.23;1.53;;;6.80;67.30;;;;;;5065813;28;20236;-86
2020/12/07 12:54:52;;;;;;;2.47;1.60;;;6.80;68.00;;;;;;5074847;28;20225;-87
2020/12/07 12:57:21;;;;;;;1.93;1.70;;;6.90;66.60;;;;;;5070566;28;20209;-85
2020/12/07 12:59:47;;;;;;;2.40;2.20;;;6.70;66.70;;;;;;5065847;28;20775;-86
2020/12/07 13:02:14;;;;;;;3.47;2.30;;;6.70;68.00;;;;;;5062923;28;20637;-87
2020/12/07 13:04:41;;;;;;;3.37;2.23;;;6.60;68.70;;;;;;5053819;28;20229;-87
2020/12/07 13:07:08;;;;;;;1.67;1.57;;;6.50;70.30;;;;;;5061626;28;20911;-85
2020/12/07 13:09:35;;;;;;;2.13;1.87;;;6.50;70.60;;;;;;5068143;28;20500;-89
2020/12/07 13:12:03;;;;;;;2.93;2.50;;;6.40;71.20;;;;;;5060868;28;20208;-88
2020/12/07 13:14:29;;;;;;;2.23;1.70;;;6.40;71.20;;;;;;5061627;28;20221;-86
2020/12/07 13:17:02;;;;;;;2.90;2.10;;;6.40;71.20;;;;;;5069668;28;20591;-86
2020/12/07 13:19:28;;;;;;;1.90;1.70;;;6.40;69.00;;;;;;5064178;28;20193;-85
2020/12/07 13:21:59;;;;;;;1.97;1.70;;;6.30;71.10;;;;;;5062566;28;20717;-86
2020/12/07 13:24:33;;;;;;;1.93;1.70;;;6.30;71.10;;;;;;5067348;28;20204;-88
2020/12/07 13:27:15;;;;;;;1.70;1.57;;;6.20;71.00;;;;;;5072527;28;20235;-81